Terminal Aerodrome Forecast
Issued by NWS St Louis, MO

Home | Current Version | Previous Version | Text Only | Print | Product List | Glossary On
Versions: 1 2 3 4 5 6 7 8 9 10 11 12 13 14
573
FTUS43 KLSX 241120
TAFCOU
TAF
KCOU 241120Z 2412/2512 16004KT P6SM SKC
     FM241600 19006KT P6SM SCT045
     FM250100 13004KT P6SM SCT250
     FM250700 15005KT P6SM BKN070=

USA.gov is the U.S. government's official web portal to all federal, state and local government web resources and services.